Almedia, Pennsylvania
Current Conditions -  °F | °C
As of 1:15 PM on Wednesday 28 Jan 2015 (Local Time) from KHZL Reporting Station
Clear Clear  
Wind Chill: -9°   Ceiling: Unl
Heat Index: -3°   Visibility: 10mi
Dew Point: -16°   Wind: 12mph
Humidity: 37%   Direction: 290°WNW
Pressure: 30.09"   Gusts: 21mph
Location:  41.0301°N, 76.4558°W
Report Text: KHZL 281815Z AUTO 29010G18KT 10SM CLR M03/M16 A3009 RMK AO2
Loading
Personal Weather Stations






























Interactive Weather Map New forecast layout! Learn more

10-Day Weather Forecast

Advertisements
Track Severe Weather on mobile